createdAt,value
2023-09-03T03:52:24.797Z,100.00
2023-09-03T04:09:41.010Z,100.00
2023-09-03T04:12:10.737Z,100.00
2023-09-03T05:00:46.929Z,100.00
2023-09-03T05:03:14.252Z,100.00
2023-09-03T05:05:43.562Z,100.00
2023-09-03T05:08:12.302Z,100.00
2023-09-03T05:10:42.435Z,100.00
2023-09-03T05:13:11.540Z,100.00
2023-09-03T05:15:39.185Z,100.00
2023-09-03T05:18:06.358Z,100.00
2023-09-03T05:20:38.891Z,100.00
2023-09-03T05:23:06.689Z,100.00
2023-09-03T05:25:35.170Z,100.00
2023-09-03T05:28:02.945Z,100.00
2023-09-03T05:30:31.315Z,100.00
2023-09-03T05:33:00.224Z,100.00
2023-09-03T05:35:29.207Z,100.00
2023-09-03T05:37:57.014Z,100.00
2023-09-03T05:40:24.264Z,100.00
2023-09-03T05:42:50.987Z,100.00
2023-09-03T05:45:19.806Z,100.00
2023-09-03T05:47:47.199Z,100.00
2023-09-03T05:50:14.487Z,100.00
2023-09-03T05:52:44.581Z,100.00
2023-09-03T05:55:11.447Z,100.00
2023-09-03T05:57:39.340Z,100.00
2023-09-03T06:00:07.420Z,100.00
2023-09-03T06:02:37.832Z,100.00
2023-09-03T06:05:06.025Z,100.00
2023-09-03T06:07:32.651Z,100.00
2023-09-03T06:09:59.745Z,100.00
2023-09-03T06:12:27.398Z,100.00
2023-09-03T06:14:54.505Z,100.00
2023-09-03T06:17:21.580Z,100.00
2023-09-03T06:19:49.951Z,100.00
2023-09-03T06:22:17.012Z,100.00
2023-09-03T06:24:44.638Z,100.00
2023-09-03T06:27:11.553Z,100.00
2023-09-03T06:29:38.667Z,100.00
2023-09-03T06:32:05.614Z,100.00
2023-09-03T06:34:32.956Z,100.00
2023-09-03T06:37:00.515Z,100.00
2023-09-03T06:39:27.701Z,100.00
2023-09-03T06:41:54.784Z,100.00
2023-09-03T06:44:23.141Z,100.00
2023-09-03T06:46:49.869Z,100.00
2023-09-03T06:49:17.065Z,100.00
2023-09-03T06:51:44.135Z,100.00
2023-09-03T06:54:10.779Z,100.00
2023-09-03T06:56:38.781Z,100.00
2023-09-03T06:59:05.402Z,100.00
2023-09-03T07:01:33.172Z,100.00
2023-09-03T07:04:00.906Z,100.00
2023-09-03T07:06:27.551Z,100.00
2023-09-03T07:08:55.218Z,100.00
2023-09-03T07:11:21.879Z,100.00
2023-09-03T07:13:50.291Z,100.00
2023-09-03T07:16:17.933Z,100.00
2023-09-03T07:18:44.549Z,100.00
2023-09-03T07:21:12.105Z,100.00
2023-09-03T07:23:39.010Z,100.00
2023-09-03T07:26:07.923Z,100.00
2023-09-03T07:28:35.434Z,100.00
2023-09-03T07:31:02.544Z,100.00
2023-09-03T07:33:30.836Z,100.00
2023-09-03T07:35:58.504Z,100.00
2023-09-03T07:38:28.286Z,100.00
2023-09-03T07:40:55.974Z,100.00
2023-09-03T07:43:23.288Z,100.00
2023-09-03T07:45:51.676Z,100.00
2023-09-03T07:48:18.603Z,100.00
2023-09-03T07:50:45.795Z,100.00
2023-09-03T07:53:13.642Z,100.00
2023-09-03T07:55:40.297Z,100.00
2023-09-03T07:58:08.069Z,100.00
2023-09-03T08:00:34.783Z,100.00
2023-09-03T08:03:02.277Z,100.00
2023-09-03T08:05:29.721Z,100.00
2023-09-03T08:07:56.608Z,100.00
2023-09-03T08:10:24.387Z,100.00
2023-09-03T08:12:53.567Z,100.00
2023-09-03T08:15:33.573Z,100.00
2023-09-03T08:18:08.369Z,100.00
2023-09-03T08:20:35.006Z,100.00
2023-09-03T08:23:02.584Z,100.00
2023-09-03T08:25:30.550Z,100.00
2023-09-03T08:27:57.740Z,100.00
2023-09-03T08:30:25.298Z,100.00
2023-09-03T08:32:51.991Z,100.00
2023-09-03T08:35:19.623Z,100.00
2023-09-03T08:37:46.275Z,100.00
2023-09-03T08:40:14.011Z,100.00
2023-09-03T08:42:44.313Z,100.00
2023-09-03T08:45:13.374Z,100.00
2023-09-03T08:47:43.279Z,100.00
2023-09-03T08:50:11.782Z,100.00
2023-09-03T08:52:43.600Z,100.00
2023-09-03T08:55:15.481Z,100.00
2023-09-03T08:57:43.226Z,100.00
2023-09-03T09:00:13.390Z,100.00
2023-09-03T09:02:43.953Z,100.00
2023-09-03T09:05:12.206Z,100.00
2023-09-03T09:07:39.539Z,100.00
2023-09-03T09:10:10.379Z,100.00
2023-09-03T09:13:03.748Z,100.00
2023-09-03T09:15:31.699Z,100.00
2023-09-03T09:17:58.671Z,100.00
2023-09-03T09:20:26.380Z,100.00
2023-09-03T09:22:53.109Z,100.00
2023-09-03T09:25:23.178Z,100.00
2023-09-03T09:27:51.081Z,100.00
2023-09-03T09:30:21.099Z,100.00
2023-09-03T09:32:49.044Z,100.00
2023-09-03T09:35:26.204Z,100.00
2023-09-03T09:37:52.848Z,100.00
2023-09-03T09:40:28.631Z,100.00
2023-09-03T09:42:58.050Z,100.00
2023-09-03T09:45:25.048Z,100.00
2023-09-03T09:48:07.797Z,100.00
2023-09-03T09:50:40.095Z,100.00
2023-09-03T09:53:21.563Z,100.00
2023-09-03T09:55:48.539Z,100.00
2023-09-03T09:58:17.256Z,100.00
2023-09-03T10:00:44.553Z,100.00
2023-09-03T10:03:16.811Z,100.00
2023-09-03T10:05:51.057Z,100.00
2023-09-03T10:08:18.078Z,100.00
2023-09-03T10:10:45.292Z,100.00
2023-09-03T10:13:12.955Z,100.00
2023-09-03T10:15:41.342Z,100.00
2023-09-03T10:18:10.191Z,100.00
2023-09-03T10:20:38.245Z,100.00
2023-09-03T10:23:06.401Z,100.00
2023-09-03T10:25:35.355Z,100.00
2023-09-03T10:28:05.976Z,100.00
2023-09-03T10:30:41.967Z,100.00
2023-09-03T10:33:10.714Z,100.00
2023-09-03T10:35:37.836Z,100.00
2023-09-03T10:38:04.699Z,100.00
2023-09-03T10:40:34.096Z,100.00
2023-09-03T10:43:20.180Z,100.00
2023-09-03T10:46:14.366Z,100.00
2023-09-03T10:48:41.834Z,100.00
2023-09-03T10:51:09.273Z,100.00
2023-09-03T10:53:43.121Z,100.00
2023-09-03T10:56:15.588Z,100.00
2023-09-03T10:59:09.088Z,100.00
2023-09-03T11:01:36.460Z,100.00
2023-09-03T11:04:04.860Z,100.00
2023-09-03T11:06:34.241Z,100.00
2023-09-03T11:09:00.967Z,100.00
2023-09-03T11:11:34.946Z,100.00
2023-09-03T11:14:01.822Z,100.00
2023-09-03T11:16:36.443Z,100.00
2023-09-03T11:19:05.633Z,100.00
2023-09-03T11:21:32.971Z,100.00
2023-09-03T11:24:19.042Z,100.00
2023-09-03T11:26:46.710Z,100.00
2023-09-03T11:29:24.989Z,100.00
2023-09-03T11:31:52.869Z,100.00
2023-09-03T11:34:23.648Z,100.00
2023-09-03T11:36:52.285Z,100.00
2023-09-03T11:39:19.566Z,100.00
2023-09-03T11:41:47.675Z,100.00
2023-09-03T11:44:16.101Z,100.00
2023-09-03T11:46:57.896Z,100.00
2023-09-03T11:49:25.163Z,100.00
2023-09-03T11:51:53.865Z,100.00
2023-09-03T11:54:24.746Z,100.00
2023-09-03T11:56:56.428Z,100.00
2023-09-03T11:59:23.292Z,100.00
2023-09-03T12:01:51.141Z,100.00
2023-09-03T12:04:17.894Z,100.00
2023-09-03T12:06:45.425Z,100.00
2023-09-03T12:09:12.288Z,100.00
2023-09-03T12:11:39.295Z,100.00
2023-09-03T12:14:11.507Z,100.00
2023-09-03T12:16:48.889Z,100.00
2023-09-03T12:19:15.600Z,100.00
2023-09-03T12:21:42.687Z,100.00
2023-09-03T12:24:09.902Z,100.00
2023-09-03T12:26:37.303Z,100.00
2023-09-03T12:29:06.113Z,100.00
2023-09-03T12:31:45.073Z,100.00
2023-09-03T12:34:12.407Z,100.00
2023-09-03T12:36:55.478Z,100.00
2023-09-03T12:39:36.733Z,100.00
2023-09-03T12:42:08.286Z,100.00
2023-09-03T12:44:36.485Z,100.00
2023-09-03T12:47:06.705Z,100.00
2023-09-03T12:49:33.980Z,100.00
2023-09-03T12:52:00.615Z,100.00
2023-09-03T12:54:29.474Z,100.00
2023-09-03T12:56:56.143Z,100.00
2023-09-03T12:59:23.538Z,100.00
2023-09-03T13:01:50.334Z,100.00
2023-09-03T13:04:17.689Z,100.00
2023-09-03T13:06:44.335Z,100.00
2023-09-03T13:09:12.098Z,100.00
2023-09-03T13:11:39.010Z,100.00
2023-09-03T13:14:06.863Z,100.00
2023-09-03T13:16:34.329Z,100.00
2023-09-03T13:19:02.043Z,100.00
2023-09-03T13:21:28.965Z,100.00
2023-09-03T13:23:56.281Z,100.00
2023-09-03T13:26:22.932Z,100.00
2023-09-03T13:28:50.171Z,100.00
2023-09-03T13:31:22.680Z,100.00
2023-09-03T13:33:49.517Z,100.00
2023-09-03T13:36:18.620Z,100.00
2023-09-03T13:38:46.368Z,100.00
2023-09-03T13:41:13.701Z,100.00
2023-09-03T13:43:43.158Z,100.00
2023-09-03T13:46:10.677Z,100.00
2023-09-03T13:48:37.901Z,100.00
2023-09-03T13:51:12.646Z,98.46
2023-09-03T13:53:39.627Z,100.00
2023-09-03T13:56:08.245Z,100.00
2023-09-03T13:58:35.788Z,100.00
2023-09-03T14:01:12.685Z,96.90
2023-09-03T14:03:39.493Z,98.97
2023-09-03T14:06:08.106Z,99.53
2023-09-03T14:08:35.199Z,97.52
2023-09-03T14:11:02.680Z,96.96
2023-09-03T14:13:29.553Z,95.76
2023-09-03T14:15:56.897Z,96.24
2023-09-03T14:18:24.917Z,100.00
2023-09-03T14:20:52.757Z,97.58
2023-09-03T14:23:19.689Z,95.64
2023-09-03T14:25:48.903Z,96.85
2023-09-03T14:28:15.627Z,98.57
2023-09-03T14:30:42.751Z,97.30
2023-09-03T14:33:10.196Z,98.77
2023-09-03T14:35:37.016Z,95.80
2023-09-03T14:38:04.448Z,98.06
2023-09-03T14:40:31.144Z,99.97
2023-09-03T14:42:59.102Z,97.66
2023-09-03T14:45:26.527Z,98.21
2023-09-03T14:47:53.953Z,98.98
2023-09-03T14:50:21.223Z,100.00
2023-09-03T14:52:48.541Z,100.00
2023-09-03T14:55:15.598Z,100.00
2023-09-03T14:57:42.912Z,100.00
2023-09-03T15:00:10.579Z,100.00
2023-09-03T15:02:37.683Z,100.00
2023-09-03T15:05:04.633Z,100.00
2023-09-03T15:07:32.220Z,100.00
2023-09-03T15:10:00.516Z,100.00
2023-09-03T15:12:27.937Z,100.00
2023-09-03T15:14:54.631Z,98.86
2023-09-03T15:17:21.549Z,100.00
2023-09-03T15:19:49.450Z,100.00
2023-09-03T15:22:16.147Z,97.35
2023-09-03T15:24:44.645Z,99.78
2023-09-03T15:27:11.295Z,100.00
2023-09-03T15:29:38.605Z,100.00
2023-09-03T15:32:06.645Z,100.00
2023-09-03T15:34:34.026Z,100.00
2023-09-03T15:37:00.762Z,100.00
2023-09-03T15:39:27.838Z,100.00
2023-09-03T15:41:54.479Z,100.00
2023-09-03T15:44:21.603Z,100.00
2023-09-03T15:46:48.542Z,100.00
2023-09-03T15:49:18.563Z,100.00
2023-09-03T15:51:48.437Z,100.00
2023-09-03T15:54:17.897Z,100.00
2023-09-03T15:56:45.897Z,100.00
2023-09-03T15:59:12.947Z,100.00
2023-09-03T16:01:39.608Z,100.00
2023-09-03T16:04:07.198Z,100.00
2023-09-03T16:06:33.966Z,100.00
2023-09-03T16:09:00.909Z,100.00
2023-09-03T16:11:27.968Z,100.00
2023-09-03T16:13:54.616Z,100.00
2023-09-03T16:16:22.099Z,100.00
2023-09-03T16:18:48.973Z,100.00
2023-09-03T16:21:16.248Z,100.00
2023-09-03T16:23:42.883Z,100.00
2023-09-03T16:26:10.290Z,100.00
2023-09-03T16:28:39.047Z,100.00
2023-09-03T16:31:06.831Z,100.00
2023-09-03T16:33:33.535Z,100.00
2023-09-03T16:36:02.069Z,100.00
2023-09-03T16:38:29.208Z,100.00
2023-09-03T16:40:58.684Z,100.00
2023-09-03T16:43:25.874Z,100.00
2023-09-03T16:45:52.984Z,100.00
2023-09-03T16:48:19.692Z,100.00
2023-09-03T16:50:46.758Z,100.00
2023-09-03T16:53:13.460Z,100.00
2023-09-03T16:55:41.587Z,100.00
2023-09-03T16:58:08.342Z,100.00
2023-09-03T17:00:35.497Z,100.00
2023-09-03T17:03:02.272Z,100.00
2023-09-03T17:05:29.298Z,100.00
2023-09-03T17:07:59.403Z,100.00
2023-09-03T17:10:26.999Z,100.00
2023-09-03T17:12:55.093Z,100.00
2023-09-03T17:15:22.071Z,100.00
2023-09-03T17:17:49.279Z,100.00
2023-09-03T17:20:16.649Z,100.00
2023-09-03T17:22:44.324Z,100.00
2023-09-03T17:25:11.268Z,100.00
2023-09-03T17:27:38.529Z,100.00
2023-09-03T17:30:05.750Z,100.00
2023-09-03T17:32:32.743Z,100.00
2023-09-03T17:34:59.467Z,100.00
2023-09-03T17:37:27.390Z,100.00
2023-09-03T17:39:54.756Z,100.00
2023-09-03T17:42:21.493Z,100.00
2023-09-03T17:44:48.208Z,100.00
2023-09-03T17:47:15.559Z,100.00
2023-09-03T17:49:42.712Z,100.00
2023-09-03T17:52:09.707Z,100.00
2023-09-03T17:54:36.402Z,100.00
2023-09-03T17:57:05.556Z,100.00
2023-09-03T17:59:32.222Z,100.00
2023-09-03T18:02:05.538Z,100.00
2023-09-03T18:04:33.836Z,100.00
2023-09-03T18:07:01.498Z,100.00
2023-09-03T18:09:30.885Z,100.00
2023-09-03T18:11:58.468Z,100.00
2023-09-03T18:14:25.147Z,100.00
2023-09-03T18:16:52.213Z,100.00
2023-09-03T18:19:19.041Z,100.00
2023-09-03T18:21:46.413Z,100.00
2023-09-03T18:24:13.112Z,100.00
2023-09-03T18:26:40.435Z,100.00
2023-09-03T18:29:07.299Z,100.00
2023-09-03T18:31:34.736Z,100.00
2023-09-03T18:34:01.459Z,100.00
2023-09-03T18:36:28.459Z,100.00
2023-09-03T18:38:55.767Z,100.00
2023-09-03T18:41:22.768Z,100.00
2023-09-03T18:43:49.554Z,100.00
2023-09-03T18:46:16.513Z,100.00
2023-09-03T18:48:43.796Z,100.00
2023-09-03T18:51:10.457Z,100.00
2023-09-03T18:53:37.795Z,100.00
2023-09-03T18:56:06.254Z,100.00
2023-09-03T18:58:34.379Z,100.00
2023-09-03T19:01:08.633Z,100.00
2023-09-03T19:03:36.316Z,100.00
2023-09-03T19:06:03.745Z,100.00
2023-09-03T19:08:31.220Z,100.00
2023-09-03T19:11:01.598Z,100.00
2023-09-03T19:13:28.637Z,100.00
2023-09-03T19:15:56.976Z,100.00
2023-09-03T19:18:25.072Z,100.00
2023-09-03T19:20:53.642Z,100.00
2023-09-03T19:23:21.681Z,100.00
2023-09-03T19:25:51.692Z,100.00
2023-09-03T19:28:21.797Z,100.00
2023-09-03T19:30:51.082Z,100.00
2023-09-03T19:33:22.282Z,100.00
2023-09-03T19:35:57.381Z,100.00
2023-09-03T19:38:26.348Z,100.00
2023-09-03T19:40:53.066Z,100.00
2023-09-03T19:43:26.674Z,100.00
2023-09-03T19:45:57.917Z,100.00
2023-09-03T19:48:26.436Z,100.00
2023-09-03T19:50:54.421Z,100.00
2023-09-03T19:53:21.813Z,100.00
2023-09-03T19:55:48.537Z,100.00
2023-09-03T19:58:16.148Z,100.00
2023-09-03T20:00:43.754Z,100.00
2023-09-03T20:03:11.295Z,100.00
2023-09-03T20:05:38.954Z,100.00
2023-09-03T20:08:06.835Z,100.00
2023-09-03T20:10:38.047Z,100.00
2023-09-03T20:13:06.732Z,100.00
2023-09-03T20:15:33.839Z,100.00
2023-09-03T20:18:00.713Z,100.00
2023-09-03T20:20:28.431Z,100.00
2023-09-03T20:23:00.397Z,100.00
2023-09-03T20:25:27.851Z,100.00
2023-09-03T20:27:54.510Z,100.00
